createdAt,value
2019-05-22T00:01:12.410Z,11.54
2019-05-22T00:04:14.398Z,11.48
2019-05-22T00:06:47.881Z,11.40
2019-05-22T00:09:35.027Z,11.40
2019-05-22T00:12:12.065Z,11.41
2019-05-22T00:15:04.660Z,11.45
2019-05-22T00:17:38.265Z,11.38
2019-05-22T00:20:14.690Z,11.39
2019-05-22T00:22:48.751Z,11.37
2019-05-22T00:25:26.947Z,11.39
2019-05-22T00:28:01.106Z,11.44
2019-05-22T00:30:48.142Z,11.44
2019-05-22T00:33:39.543Z,11.36
2019-05-22T00:36:14.327Z,11.34
2019-05-22T00:38:48.005Z,11.41
2019-05-22T00:41:23.485Z,11.35
2019-05-22T00:43:57.392Z,11.34
2019-05-22T00:46:30.625Z,11.31
2019-05-22T00:49:07.328Z,11.30
2019-05-22T00:52:14.691Z,11.32
2019-05-22T00:54:57.430Z,11.34
2019-05-22T00:57:36.282Z,11.38
2019-05-22T01:00:21.979Z,11.31
2019-05-22T01:03:19.469Z,11.29
2019-05-22T01:05:55.056Z,11.26
2019-05-22T01:08:29.102Z,11.26
2019-05-22T01:11:04.249Z,11.25
2019-05-22T01:13:38.125Z,11.30
2019-05-22T01:16:21.755Z,11.34
2019-05-22T01:18:57.792Z,11.30
2019-05-22T01:21:50.632Z,11.35
2019-05-22T01:24:36.174Z,11.35
2019-05-22T01:27:09.842Z,11.31
2019-05-22T01:29:43.922Z,11.32
2019-05-22T01:32:24.664Z,11.29
2019-05-22T01:35:20.352Z,11.40
2019-05-22T01:37:58.124Z,11.41
2019-05-22T01:40:53.772Z,11.43
2019-05-22T01:43:28.708Z,11.31
2019-05-22T01:46:03.378Z,11.33
2019-05-22T01:48:46.191Z,11.33
2019-05-22T01:51:28.696Z,11.29
2019-05-22T01:54:04.080Z,11.30
2019-05-22T01:56:39.744Z,11.28
2019-05-22T01:59:16.125Z,11.27
2019-05-22T02:01:59.344Z,11.24
2019-05-22T02:04:34.266Z,11.18
2019-05-22T02:07:09.879Z,11.09
2019-05-22T02:09:46.130Z,11.06
2019-05-22T02:12:36.654Z,11.04
2019-05-22T02:15:11.168Z,11.04
2019-05-22T02:17:45.394Z,11.05
2019-05-22T02:20:19.798Z,11.03
2019-05-22T02:22:54.768Z,11.06
2019-05-22T02:25:38.608Z,11.18
2019-05-22T02:28:15.260Z,11.13
2019-05-22T02:30:49.537Z,11.08
2019-05-22T02:33:25.043Z,11.08
2019-05-22T02:36:21.724Z,11.11
2019-05-22T02:40:22.749Z,11.06
2019-05-22T02:42:57.104Z,11.00
2019-05-22T02:45:30.551Z,10.99
2019-05-22T02:48:06.420Z,11.06
2019-05-22T02:50:50.325Z,11.17
2019-05-22T02:53:40.362Z,11.15
2019-05-22T02:56:14.109Z,11.14
2019-05-22T02:58:51.969Z,11.12
2019-05-22T03:01:25.422Z,11.09
2019-05-22T03:03:59.370Z,11.15
2019-05-22T03:06:34.874Z,11.07
2019-05-22T03:09:23.659Z,11.05
2019-05-22T03:12:04.242Z,11.12
2019-05-22T03:14:40.066Z,11.17
2019-05-22T03:17:27.649Z,11.19
2019-05-22T03:20:04.462Z,11.09
2019-05-22T03:22:44.554Z,11.08
2019-05-22T03:25:18.237Z,11.08
2019-05-22T03:28:02.255Z,11.16
2019-05-22T03:30:45.444Z,11.19
2019-05-22T03:33:19.081Z,11.13
2019-05-22T03:36:01.577Z,11.19
2019-05-22T03:38:47.981Z,11.21
2019-05-22T03:41:30.545Z,11.18
2019-05-22T03:44:05.389Z,11.11
2019-05-22T03:46:44.774Z,11.11
2019-05-22T03:49:30.000Z,11.14
2019-05-22T03:52:06.410Z,11.24
2019-05-22T03:54:40.617Z,11.16
2019-05-22T03:57:25.877Z,11.25
2019-05-22T04:00:02.329Z,11.25
2019-05-22T04:02:36.455Z,11.20
2019-05-22T04:05:10.951Z,11.08
2019-05-22T04:07:57.518Z,11.15
2019-05-22T04:10:34.639Z,11.08
2019-05-22T04:13:19.380Z,11.20
2019-05-22T04:15:53.105Z,11.13
2019-05-22T04:18:28.552Z,11.08
2019-05-22T04:21:11.214Z,11.15
2019-05-22T04:23:45.299Z,11.18
2019-05-22T04:26:28.928Z,11.23
2019-05-22T04:29:03.707Z,11.14
2019-05-22T04:31:52.512Z,11.08
2019-05-22T04:34:26.470Z,10.99
2019-05-22T04:37:13.793Z,11.01
2019-05-22T04:40:16.914Z,11.00
2019-05-22T04:42:51.423Z,10.96
2019-05-22T04:45:34.921Z,11.03
2019-05-22T04:48:08.957Z,11.04
2019-05-22T04:50:42.542Z,11.03
2019-05-22T04:53:16.925Z,11.06
2019-05-22T04:55:50.677Z,11.05
2019-05-22T04:58:30.532Z,11.04
2019-05-22T05:01:03.915Z,10.97
2019-05-22T05:03:48.150Z,10.99
2019-05-22T05:06:23.985Z,10.92
2019-05-22T05:09:12.238Z,11.04
2019-05-22T05:11:45.542Z,10.93
2019-05-22T05:14:31.990Z,10.99
2019-05-22T05:17:08.612Z,10.92
2019-05-22T05:19:42.216Z,10.88
2019-05-22T05:22:19.030Z,10.88
2019-05-22T05:24:55.568Z,10.92
2019-05-22T05:27:27.578Z,10.88
2019-05-22T05:30:10.199Z,10.89
2019-05-22T05:32:52.831Z,10.87
2019-05-22T05:35:26.935Z,10.88
2019-05-22T05:38:11.727Z,10.91
2019-05-22T05:40:46.302Z,10.95
2019-05-22T05:43:29.179Z,10.98
2019-05-22T05:46:03.472Z,10.97
2019-05-22T05:48:37.060Z,10.99
2019-05-22T05:51:29.422Z,11.00
2019-05-22T05:54:12.402Z,10.95
2019-05-22T05:56:49.796Z,11.00
2019-05-22T05:59:24.653Z,10.95
2019-05-22T06:02:09.360Z,10.93
2019-05-22T06:04:43.202Z,10.85
2019-05-22T06:07:24.265Z,10.85
2019-05-22T06:10:34.471Z,10.96
2019-05-22T06:13:07.867Z,10.96
2019-05-22T06:16:24.350Z,10.97
2019-05-22T06:18:58.691Z,10.93
2019-05-22T06:21:33.591Z,10.88
2019-05-22T06:24:28.074Z,10.89
2019-05-22T06:27:19.405Z,10.87
2019-05-22T06:29:57.339Z,10.92
2019-05-22T06:33:27.460Z,10.89
2019-05-22T06:36:04.691Z,10.87
2019-05-22T06:39:13.839Z,10.94
2019-05-22T06:41:48.770Z,10.94
2019-05-22T06:44:39.046Z,11.04
2019-05-22T06:47:25.829Z,11.03
2019-05-22T06:49:59.504Z,11.05
2019-05-22T06:52:32.493Z,11.10
2019-05-22T06:55:06.926Z,11.07
2019-05-22T06:57:40.422Z,11.10
2019-05-22T07:00:21.658Z,11.16
2019-05-22T07:02:55.167Z,11.16
2019-05-22T07:05:29.347Z,11.04
2019-05-22T07:08:03.888Z,11.01
2019-05-22T07:10:38.232Z,11.12
2019-05-22T07:13:22.998Z,11.28
2019-05-22T07:15:59.274Z,11.22
2019-05-22T07:18:33.078Z,11.21
2019-05-22T07:21:07.985Z,11.14
2019-05-22T07:23:42.539Z,11.16
2019-05-22T07:26:25.364Z,11.22
2019-05-22T07:29:17.111Z,11.22
2019-05-22T07:32:02.973Z,11.22
2019-05-22T07:34:36.282Z,11.23
2019-05-22T07:37:19.476Z,11.24
2019-05-22T07:39:53.038Z,11.21
2019-05-22T07:42:27.419Z,11.18
2019-05-22T07:45:00.946Z,11.17
2019-05-22T07:47:36.999Z,11.21
2019-05-22T07:50:11.367Z,11.20
2019-05-22T07:52:45.663Z,11.19
2019-05-22T07:55:29.545Z,11.27
2019-05-22T07:58:11.931Z,11.27
2019-05-22T08:00:57.604Z,11.23
2019-05-22T08:03:45.608Z,11.36
2019-05-22T08:06:19.994Z,11.41
2019-05-22T08:09:11.378Z,11.51
2019-05-22T08:11:45.233Z,11.41
2019-05-22T08:14:19.700Z,11.35
2019-05-22T08:16:54.164Z,11.34
2019-05-22T08:19:28.429Z,11.33
2019-05-22T08:22:07.244Z,11.26
2019-05-22T08:24:36.286Z,11.24
2019-05-22T08:27:10.081Z,11.36
2019-05-22T08:29:43.535Z,11.29
2019-05-22T08:32:18.514Z,11.32
2019-05-22T08:34:52.002Z,11.29
2019-05-22T08:37:30.332Z,11.45
2019-05-22T08:40:04.914Z,11.52
2019-05-22T08:42:48.490Z,11.65
2019-05-22T08:45:23.466Z,11.66
2019-05-22T08:48:09.248Z,11.62
2019-05-22T08:50:54.565Z,11.65
2019-05-22T08:53:28.283Z,11.67
2019-05-22T08:56:01.922Z,11.61
2019-05-22T08:58:36.680Z,11.61
2019-05-22T09:01:19.005Z,11.55
2019-05-22T09:03:52.491Z,11.56
2019-05-22T09:06:25.729Z,11.54
2019-05-22T09:08:59.416Z,11.50
2019-05-22T09:11:32.557Z,11.50
2019-05-22T09:14:05.757Z,11.60
2019-05-22T09:16:48.451Z,11.71
2019-05-22T09:19:22.868Z,11.78
2019-05-22T09:21:57.247Z,11.86
2019-05-22T09:24:47.852Z,11.81
2019-05-22T09:27:34.526Z,11.86
2019-05-22T09:30:17.291Z,11.87
2019-05-22T09:32:59.859Z,11.89
2019-05-22T09:35:33.363Z,11.83
2019-05-22T09:38:06.652Z,11.84
2019-05-22T09:40:39.869Z,11.90
2019-05-22T09:43:13.359Z,11.99
2019-05-22T09:45:46.947Z,11.98
2019-05-22T09:48:21.188Z,12.03
2019-05-22T09:50:55.529Z,12.03
2019-05-22T09:53:41.641Z,12.03
2019-05-22T09:56:15.237Z,11.95
2019-05-22T09:58:48.500Z,11.89
2019-05-22T10:01:30.401Z,12.00
2019-05-22T10:04:03.580Z,12.02
2019-05-22T10:06:37.059Z,12.14
2019-05-22T10:09:10.640Z,12.28
2019-05-22T10:11:44.193Z,12.14
2019-05-22T10:14:25.994Z,12.18
2019-05-22T10:16:59.366Z,12.22
2019-05-22T10:19:43.869Z,12.21
2019-05-22T10:22:20.062Z,12.23
2019-05-22T10:25:12.099Z,12.18
2019-05-22T10:27:39.328Z,12.26
2019-05-22T10:30:24.803Z,12.51
2019-05-22T10:32:57.959Z,12.54
2019-05-22T10:35:33.547Z,12.46
2019-05-22T10:38:07.446Z,12.62
2019-05-22T10:40:40.973Z,12.72
2019-05-22T10:43:14.523Z,12.82
2019-05-22T10:45:48.465Z,12.85
2019-05-22T10:48:21.692Z,12.77
2019-05-22T10:50:56.074Z,12.67
2019-05-22T10:53:39.210Z,12.68
2019-05-22T10:56:22.962Z,12.86
2019-05-22T10:59:07.515Z,13.03
2019-05-22T11:01:41.891Z,13.19
2019-05-22T11:04:19.290Z,13.26
2019-05-22T11:07:01.891Z,13.24
2019-05-22T11:09:48.303Z,13.20
2019-05-22T11:12:22.060Z,13.22
2019-05-22T11:14:56.076Z,13.27
2019-05-22T11:17:45.797Z,13.37
2019-05-22T11:20:19.822Z,13.30
2019-05-22T11:22:53.908Z,13.45
2019-05-22T11:25:27.250Z,13.36
2019-05-22T11:28:00.828Z,13.24
2019-05-22T11:30:34.742Z,13.26
2019-05-22T11:33:23.041Z,13.36
2019-05-22T11:35:56.589Z,13.34
2019-05-22T11:38:30.220Z,13.37
2019-05-22T11:41:04.663Z,13.40
2019-05-22T11:43:47.156Z,13.37
2019-05-22T11:46:22.210Z,13.20
2019-05-22T11:48:55.844Z,13.26
2019-05-22T11:51:29.837Z,13.48
2019-05-22T11:54:14.805Z,13.77
2019-05-22T11:56:48.774Z,13.90
2019-05-22T11:59:22.785Z,13.72
2019-05-22T12:01:56.368Z,13.70
2019-05-22T12:04:46.554Z,13.50
2019-05-22T12:07:21.706Z,13.58
2019-05-22T12:10:04.416Z,13.79
2019-05-22T12:12:38.032Z,13.86
2019-05-22T12:15:13.233Z,13.93
2019-05-22T12:17:46.975Z,13.82
2019-05-22T12:20:31.197Z,13.81
2019-05-22T12:23:04.779Z,13.76
2019-05-22T12:25:38.848Z,13.86
2019-05-22T12:28:21.183Z,14.17
2019-05-22T12:30:56.337Z,14.32
2019-05-22T12:33:31.088Z,14.41
2019-05-22T12:36:06.556Z,14.29
2019-05-22T12:38:40.541Z,14.32
2019-05-22T12:41:15.673Z,14.48
2019-05-22T12:43:49.683Z,14.83
2019-05-22T12:46:32.943Z,14.88
2019-05-22T12:49:09.289Z,14.65
2019-05-22T12:51:52.506Z,14.62
2019-05-22T12:54:46.998Z,14.87
2019-05-22T12:57:15.969Z,15.18
2019-05-22T12:59:49.630Z,15.43
2019-05-22T13:02:24.651Z,15.42
2019-05-22T13:04:59.718Z,15.61
2019-05-22T13:07:31.621Z,15.97
2019-05-22T13:10:07.098Z,16.32
2019-05-22T13:12:41.178Z,16.64
2019-05-22T13:15:30.951Z,16.47
2019-05-22T13:18:05.877Z,16.41
2019-05-22T13:20:44.001Z,16.65
2019-05-22T13:23:17.584Z,16.68
2019-05-22T13:25:51.608Z,16.61
2019-05-22T13:28:28.597Z,16.83
2019-05-22T13:31:02.903Z,16.83
2019-05-22T13:33:47.683Z,16.84
2019-05-22T13:36:21.134Z,16.73
2019-05-22T13:38:55.525Z,16.31
2019-05-22T13:41:46.201Z,16.07
2019-05-22T13:44:30.045Z,16.04
2019-05-22T13:47:04.674Z,15.77
2019-05-22T13:49:47.449Z,15.80
2019-05-22T13:52:30.087Z,15.77
2019-05-22T13:55:13.703Z,15.62
2019-05-22T13:57:57.289Z,15.50
2019-05-22T14:00:30.961Z,15.15
2019-05-22T14:03:04.918Z,15.05
2019-05-22T14:05:39.228Z,15.50
2019-05-22T14:08:14.653Z,16.03
2019-05-22T14:10:50.193Z,16.51
2019-05-22T14:13:25.900Z,17.23
2019-05-22T14:16:00.090Z,17.23
2019-05-22T14:18:33.682Z,17.53
2019-05-22T14:21:07.259Z,17.45
2019-05-22T14:23:41.844Z,17.63
2019-05-22T14:26:15.658Z,17.63
2019-05-22T14:29:01.116Z,17.96
2019-05-22T14:31:35.073Z,17.55
2019-05-22T14:34:17.561Z,17.17
2019-05-22T14:36:52.101Z,16.68
2019-05-22T14:39:26.766Z,16.48
2019-05-22T14:42:10.534Z,16.42
2019-05-22T14:44:43.695Z,16.79
2019-05-22T14:47:17.206Z,16.74
2019-05-22T14:49:51.059Z,16.67
2019-05-22T14:52:24.642Z,16.94
2019-05-22T14:54:58.410Z,16.92
2019-05-22T14:57:31.809Z,17.10
2019-05-22T15:00:06.313Z,16.74
2019-05-22T15:02:57.241Z,16.70
2019-05-22T15:05:28.967Z,16.80
2019-05-22T15:08:02.498Z,16.80
2019-05-22T15:10:36.728Z,16.94
2019-05-22T15:13:19.613Z,16.83
2019-05-22T15:16:01.964Z,17.00
2019-05-22T15:18:50.563Z,17.31
2019-05-22T15:21:25.000Z,17.32
2019-05-22T15:23:58.304Z,17.67
2019-05-22T15:26:40.827Z,17.55
2019-05-22T15:29:16.529Z,17.46
2019-05-22T15:31:54.352Z,17.41
2019-05-22T15:34:29.554Z,17.36
2019-05-22T15:37:06.865Z,17.36
2019-05-22T15:39:56.880Z,17.35
2019-05-22T15:42:49.306Z,17.35
2019-05-22T15:45:56.636Z,17.20
2019-05-22T15:48:34.838Z,16.80
2019-05-22T15:51:10.061Z,16.80
2019-05-22T15:53:46.190Z,16.61
2019-05-22T15:56:33.176Z,16.41
2019-05-22T15:59:20.299Z,16.35
2019-05-22T16:01:54.086Z,16.20
2019-05-22T16:04:41.324Z,16.31
2019-05-22T16:07:17.920Z,16.41
2019-05-22T16:09:54.539Z,16.48
2019-05-22T16:12:28.312Z,16.47
2019-05-22T16:15:05.793Z,16.26
2019-05-22T16:17:42.610Z,16.26
2019-05-22T16:20:29.292Z,16.42
2019-05-22T16:23:03.626Z,16.32
2019-05-22T16:25:40.033Z,16.40
2019-05-22T16:28:23.406Z,16.51
2019-05-22T16:30:57.379Z,16.33
2019-05-22T16:33:32.585Z,16.37
2019-05-22T16:36:07.532Z,16.56
2019-05-22T16:38:44.057Z,16.56
2019-05-22T16:41:17.875Z,16.74
2019-05-22T16:43:51.876Z,17.19
2019-05-22T16:46:28.080Z,17.55
2019-05-22T16:49:01.704Z,17.61
2019-05-22T16:51:35.852Z,17.23
2019-05-22T16:54:10.010Z,17.28
2019-05-22T16:56:42.961Z,17.26
2019-05-22T16:59:16.520Z,17.20
2019-05-22T17:02:00.038Z,16.94
2019-05-22T17:04:25.706Z,17.23
2019-05-22T17:07:11.368Z,17.69
2019-05-22T17:09:44.752Z,17.95
2019-05-22T17:12:20.293Z,17.78
2019-05-22T17:14:54.898Z,17.29
2019-05-22T17:17:39.495Z,17.08
2019-05-22T17:20:13.433Z,16.74
2019-05-22T17:23:01.661Z,16.64
2019-05-22T17:25:46.196Z,16.46
2019-05-22T17:28:19.915Z,16.59
2019-05-22T17:31:03.942Z,16.65
2019-05-22T17:33:37.462Z,16.84
2019-05-22T17:36:11.814Z,16.83
2019-05-22T17:38:46.963Z,17.50
2019-05-22T17:41:21.610Z,18.28
2019-05-22T17:43:55.409Z,19.08
2019-05-22T17:46:30.290Z,19.44
2019-05-22T17:49:04.220Z,19.72
2019-05-22T17:51:37.844Z,19.82
2019-05-22T17:54:11.217Z,19.65
2019-05-22T17:56:45.632Z,19.38
2019-05-22T17:59:31.531Z,19.00
2019-05-22T18:02:15.517Z,17.67
2019-05-22T18:04:50.063Z,16.97
2019-05-22T18:07:23.902Z,16.14
2019-05-22T18:09:57.773Z,15.74
2019-05-22T18:12:31.405Z,15.37
2019-05-22T18:15:05.630Z,14.97
2019-05-22T18:17:48.726Z,15.06
2019-05-22T18:20:42.274Z,14.88
2019-05-22T18:23:18.929Z,14.74
2019-05-22T18:25:52.128Z,14.60
2019-05-22T18:28:25.887Z,14.52
2019-05-22T18:30:59.130Z,14.49
2019-05-22T18:33:32.414Z,14.45
2019-05-22T18:36:06.025Z,14.38
2019-05-22T18:38:39.784Z,14.29
2019-05-22T18:41:13.485Z,14.18
2019-05-22T18:43:46.660Z,14.18
2019-05-22T18:46:21.744Z,14.14
2019-05-22T18:49:04.370Z,14.03
2019-05-22T18:51:46.660Z,13.99
2019-05-22T18:54:21.127Z,13.85
2019-05-22T18:56:54.828Z,13.85
2019-05-22T18:59:27.833Z,13.82
2019-05-22T19:02:09.979Z,13.75
2019-05-22T19:04:43.781Z,13.67
2019-05-22T19:07:22.036Z,13.61
2019-05-22T19:10:21.337Z,13.53
2019-05-22T19:13:10.156Z,13.52
2019-05-22T19:15:43.858Z,13.36
2019-05-22T19:18:17.147Z,13.28
2019-05-22T19:20:50.795Z,13.10
2019-05-22T19:23:23.828Z,12.96
2019-05-22T19:26:07.555Z,12.92
2019-05-22T19:28:44.230Z,12.87
2019-05-22T19:31:18.367Z,12.80
2019-05-22T19:34:04.726Z,12.55
2019-05-22T19:36:38.029Z,12.47
2019-05-22T19:39:23.603Z,12.32
2019-05-22T19:42:04.243Z,12.16
2019-05-22T19:44:46.104Z,12.01
2019-05-22T19:47:40.153Z,11.90
2019-05-22T19:50:33.812Z,11.90
2019-05-22T19:53:18.830Z,11.91
2019-05-22T19:55:48.087Z,11.81
2019-05-22T19:58:39.277Z,11.72
2019-05-22T20:01:13.355Z,11.58
2019-05-22T20:03:48.590Z,11.46
2019-05-22T20:06:31.231Z,11.42
2019-05-22T20:09:08.006Z,11.33
2019-05-22T20:11:41.115Z,11.36
2019-05-22T20:14:59.427Z,11.45
2019-05-22T20:17:29.411Z,11.31
2019-05-22T20:20:06.619Z,11.30
2019-05-22T20:22:42.439Z,11.12
2019-05-22T20:25:37.288Z,10.92
2019-05-22T20:28:15.090Z,10.81
2019-05-22T20:31:01.836Z,10.74
2019-05-22T20:33:56.509Z,10.65
2019-05-22T20:37:11.394Z,10.65
2019-05-22T20:39:44.825Z,10.48
2019-05-22T20:42:34.721Z,10.47
2019-05-22T20:45:27.064Z,10.44
2019-05-22T20:48:12.635Z,10.41
2019-05-22T20:51:11.661Z,10.41
2019-05-22T20:53:54.368Z,10.35
2019-05-22T20:56:41.403Z,10.34
2019-05-22T20:59:16.049Z,10.29
2019-05-22T21:02:00.851Z,10.27
2019-05-22T21:04:43.329Z,10.19
2019-05-22T21:07:20.495Z,10.10
2019-05-22T21:10:00.210Z,9.99
2019-05-22T21:12:35.895Z,10.02
2019-05-22T21:15:31.604Z,9.99
2019-05-22T21:18:23.377Z,9.91
2019-05-22T21:20:59.859Z,9.78
2019-05-22T21:23:33.699Z,9.72
2019-05-22T21:26:09.762Z,9.67
2019-05-22T21:29:01.626Z,9.67
2019-05-22T21:31:35.950Z,9.55
2019-05-22T21:34:09.934Z,9.58
2019-05-22T21:36:43.331Z,9.56
2019-05-22T21:39:16.939Z,9.49
2019-05-22T21:41:50.569Z,9.39
2019-05-22T21:44:23.763Z,9.33
2019-05-22T21:47:12.980Z,9.35
2019-05-22T21:49:58.545Z,9.25
2019-05-22T21:52:32.962Z,9.15
2019-05-22T21:55:20.021Z,9.23
2019-05-22T21:58:09.802Z,9.14
2019-05-22T22:01:14.000Z,9.02
2019-05-22T22:03:51.776Z,8.98
2019-05-22T22:06:42.209Z,8.96
2019-05-22T22:09:17.662Z,8.87
2019-05-22T22:12:00.667Z,8.90
2019-05-22T22:14:35.818Z,8.85
2019-05-22T22:17:10.190Z,8.75
2019-05-22T22:19:56.235Z,8.81
2019-05-22T22:22:41.739Z,8.70
2019-05-22T22:25:16.847Z,8.62
2019-05-22T22:28:00.663Z,8.54
2019-05-22T22:30:44.405Z,8.51
2019-05-22T22:33:22.534Z,8.45
2019-05-22T22:35:56.969Z,8.47
2019-05-22T22:38:42.100Z,8.48
2019-05-22T22:41:16.763Z,8.46
2019-05-22T22:43:50.072Z,8.39
2019-05-22T22:46:32.411Z,8.32
2019-05-22T22:49:06.519Z,8.18
2019-05-22T22:51:51.584Z,8.18
2019-05-22T22:54:26.981Z,8.05
2019-05-22T22:57:01.266Z,8.10
2019-05-22T22:59:44.384Z,8.12
2019-05-22T23:02:30.840Z,8.09
2019-05-22T23:05:07.412Z,8.03
2019-05-22T23:07:51.177Z,8.17
2019-05-22T23:10:25.899Z,8.12
2019-05-22T23:12:59.096Z,8.11
2019-05-22T23:15:32.686Z,8.04
2019-05-22T23:18:06.723Z,7.95
2019-05-22T23:20:39.230Z,7.87
2019-05-22T23:23:10.767Z,7.86
2019-05-22T23:25:45.897Z,7.96
2019-05-22T23:28:33.634Z,8.07
2019-05-22T23:31:06.853Z,8.07
2019-05-22T23:33:51.709Z,8.03
2019-05-22T23:36:25.650Z,7.92
2019-05-22T23:39:00.674Z,7.84
2019-05-22T23:41:37.124Z,7.73
2019-05-22T23:44:23.389Z,7.75
2019-05-22T23:46:57.539Z,7.68
2019-05-22T23:49:31.715Z,7.68
2019-05-22T23:52:20.321Z,7.63
2019-05-22T23:54:54.083Z,7.57
2019-05-22T23:57:28.276Z,7.56
